This is the latest recevied weather packets stored in our database for station/object W4EDL-13. If no packets are shown the sender has not sent any weather packets the latest 10 day(s).
| Time | Temp. | Humidity | Pressure | Rain* | Wind** | Luminosity | Snow |
|---|---|---|---|---|---|---|---|
| 1777381538 | 25.56° C | 77% | 1010.3 hPa | - | - | - | - |
| 1777380944 | 26.11° C | 80% | 1010.3 hPa | - | - | - | - |
| 1777380937 | 26.11° C | 80% | 1010.3 hPa | - | - | - | - |
| 1777380344 | 24.44° C | 84% | 1010.3 hPa | - | - | - | - |
| 1777380336 | 24.44° C | 84% | 1010.3 hPa | - | - | - | - |
| 1777379743 | 23.89° C | 89% | 1010.3 hPa | - | - | - | - |
| 1777379736 | 23.89° C | 89% | 1010.3 hPa | - | - | - | - |
| 1777379143 | 22.78° C | 95% | 1010.3 hPa | - | - | - | - |
| 1777379135 | 22.78° C | 95% | 1010.3 hPa | - | - | - | - |
| 1777378542 | 21.67° C | 98% | 1009.7 hPa | - | - | - | - |
| 1777378535 | 21.67° C | 98% | 1009.7 hPa | - | - | - | - |
| 1777377942 | 21.11° C | 98% | 1010.3 hPa | - | - | - | - |
| 1777377934 | 21.11° C | 98% | 1010.3 hPa | - | - | - | - |
| 1777377341 | 21.11° C | 99% | 1010.3 hPa | - | - | - | - |
| 1777377333 | 21.11° C | 99% | 1010.3 hPa | - | - | - | - |
| 1777376740 | 20.56° C | 99% | 1009.7 hPa | - | - | - | - |
| 1777376733 | 20.56° C | 99% | 1009.7 hPa | - | - | - | - |
| 1777376140 | 20.56° C | 99% | 1009.3 hPa | - | - | - | - |
| 1777376132 | 20.56° C | 99% | 1009.3 hPa | - | - | - | - |
| 1777375539 | 21.11° C | 99% | 1009.3 hPa | - | - | - | - |
| 1777375532 | 21.11° C | 99% | 1009.3 hPa | - | - | - | - |
| 1777374939 | 21.11° C | 99% | 1009 hPa | - | - | - | - |
| 1777374931 | 21.11° C | 99% | 1009 hPa | - | - | - | - |
| 1777374339 | 20.56° C | 99% | 1009 hPa | - | - | - | - |
| 1777374330 | 20.56° C | 99% | 1009 hPa | - | - | - | - |
* Rain since midnight (hover to see other rain measurements)
** Current wind speed in m/s (hover to see current wind gust speed)